Time;durP1;ratioP1;P1;durP2;ratioP2;P2;SDS_P1;SDS_P2;PMS_P1;PMS_P2;Temp;Humidity;BMP_temperature;BMP_pressure;BME280_temperature;BME280_humidity;BME280_pressure;Samples;Min_cycle;Max_cycle;Signal;HPM_P1;HPM_P2
2022/04/19 00:00:20;;;;;;;2.65;2.30;;;;;;;;;;5020483;28;20041;-70
2022/04/19 00:02:46;;;;;;;3.65;2.20;;;;;;;;;;5019669;28;20045;-71
2022/04/19 00:05:12;;;;;;;2.97;2.42;;;;;;;;;;5019787;28;20133;-70
2022/04/19 00:07:38;;;;;;;3.17;2.40;;;;;;;;;;5019829;28;20495;-71
2022/04/19 00:10:05;;;;;;;5.65;2.63;;;;;;;;;;5021167;28;20037;-70
2022/04/19 00:12:30;;;;;;;3.15;2.70;;;;;;;;;;5021230;28;20087;-71
2022/04/19 00:14:56;;;;;;;3.58;2.30;;;;;;;;;;5020421;28;20755;-71
2022/04/19 00:17:21;;;;;;;3.90;2.20;;;;;;;;;;5018784;28;20433;-71
2022/04/19 00:19:47;;;;;;;4.00;2.50;;;;;;;;;;5021726;28;20428;-72
2022/04/19 00:22:12;;;;;;;4.32;2.70;;;;;;;;;;5018600;28;20055;-73
2022/04/19 00:24:38;;;;;;;3.63;2.60;;;;;;;;;;5020540;28;20108;-73
2022/04/19 00:27:04;;;;;;;4.75;2.47;;;;;;;;;;5018806;28;20059;-72
2022/04/19 00:29:30;;;;;;;3.28;2.40;;;;;;;;;;5019363;28;20049;-69
2022/04/19 00:31:55;;;;;;;3.28;2.35;;;;;;;;;;5020553;28;20039;-69
2022/04/19 00:34:20;;;;;;;3.63;2.78;;;;;;;;;;5020267;28;20406;-69
2022/04/19 00:36:46;;;;;;;5.85;2.20;;;;;;;;;;5019579;28;20044;-70
2022/04/19 00:39:11;;;;;;;3.38;2.40;;;;;;;;;;5017940;28;20294;-69
2022/04/19 00:41:37;;;;;;;2.97;2.47;;;;;;;;;;5001964;28;20052;-69
2022/04/19 00:44:02;;;;;;;3.05;2.20;;;;;;;;;;5017822;28;20586;-69
2022/04/19 00:46:28;;;;;;;2.40;2.00;;;;;;;;;;5020538;28;20041;-70
2022/04/19 00:48:53;;;;;;;4.82;2.50;;;;;;;;;;5018788;28;20049;-70
2022/04/19 00:51:20;;;;;;;4.80;2.50;;;;;;;;;;5019326;28;20037;-70
2022/04/19 00:53:47;;;;;;;2.95;2.30;;;;;;;;;;5018763;28;20037;-70
2022/04/19 00:56:14;;;;;;;4.43;2.67;;;;;;;;;;5018627;28;20041;-69
2022/04/19 00:58:39;;;;;;;3.05;2.67;;;;;;;;;;5015818;28;20034;-70
2022/04/19 01:01:06;;;;;;;2.80;2.50;;;;;;;;;;5017153;28;20033;-69
2022/04/19 01:03:31;;;;;;;4.75;2.70;;;;;;;;;;5017513;28;20045;-69
2022/04/19 01:06:04;;;;;;;3.38;2.53;;;;;;;;;;5015802;28;20026;-69
2022/04/19 01:08:30;;;;;;;3.13;2.50;;;;;;;;;;5001462;28;20120;-69
2022/04/19 01:13:54;;;;;;;5.57;2.35;;;;;;;;;;5019270;28;20033;-69
2022/04/19 01:16:21;;;;;;;3.00;2.30;;;;;;;;;;5017470;28;20041;-69
2022/04/19 01:18:48;;;;;;;3.40;2.20;;;;;;;;;;5016616;28;20033;-69
2022/04/19 01:21:13;;;;;;;3.65;2.05;;;;;;;;;;5017195;28;20397;-69
2022/04/19 01:23:39;;;;;;;2.33;2.10;;;;;;;;;;5023934;28;20087;-69
2022/04/19 01:26:06;;;;;;;3.28;2.10;;;;;;;;;;5017834;28;20037;-69
2022/04/19 01:28:34;;;;;;;5.38;2.08;;;;;;;;;;5016238;28;20982;-70
2022/04/19 01:31:01;;;;;;;4.97;2.40;;;;;;;;;;5017983;28;20037;-69
2022/04/19 01:33:36;;;;;;;3.40;2.38;;;;;;;;;;5017641;28;20059;-70
2022/04/19 01:36:04;;;;;;;3.45;2.40;;;;;;;;;;5004383;28;20040;-69
2022/04/19 01:38:30;;;;;;;3.30;2.28;;;;;;;;;;5004267;28;20041;-69
2022/04/19 01:40:55;;;;;;;4.75;1.90;;;;;;;;;;5021752;28;20041;-69
2022/04/19 01:43:41;;;;;;;2.28;1.88;;;;;;;;;;5020615;28;20057;-69
2022/04/19 01:46:07;;;;;;;2.28;2.08;;;;;;;;;;5025653;28;20515;-69
2022/04/19 01:48:32;;;;;;;3.55;1.75;;;;;;;;;;5021817;28;20541;-69
2022/04/19 01:50:58;;;;;;;4.22;2.20;;;;;;;;;;5003598;28;20098;-70
2022/04/19 01:53:23;;;;;;;1.65;1.55;;;;;;;;;;5005397;28;20029;-69
2022/04/19 01:55:52;;;;;;;2.30;1.77;;;;;;;;;;5012266;28;20141;-69
2022/04/19 01:58:44;;;;;;;2.30;1.75;;;;;;;;;;5022260;28;20056;-69
2022/04/19 02:01:12;;;;;;;3.25;1.90;;;;;;;;;;5019941;28;20061;-69
2022/04/19 02:03:37;;;;;;;3.25;2.45;;;;;;;;;;5020940;28;20121;-69
2022/04/19 02:06:10;;;;;;;1.98;1.75;;;;;;;;;;5022511;28;20051;-71
2022/04/19 02:08:38;;;;;;;2.65;2.05;;;;;;;;;;5020799;28;21113;-70
2022/04/19 02:11:04;;;;;;;2.97;1.65;;;;;;;;;;5018967;28;20063;-70
2022/04/19 02:13:31;;;;;;;3.92;1.90;;;;;;;;;;5020716;28;20057;-70
2022/04/19 02:16:16;;;;;;;3.08;1.65;;;;;;;;;;5023514;28;20052;-70
2022/04/19 02:18:42;;;;;;;1.70;1.60;;;;;;;;;;5020510;28;20041;-70
2022/04/19 02:21:08;;;;;;;2.20;1.60;;;;;;;;;;5021457;28;20061;-69
2022/04/19 02:23:34;;;;;;;4.38;1.85;;;;;;;;;;5022484;28;20199;-70
2022/04/19 02:26:00;;;;;;;1.75;1.50;;;;;;;;;;5019121;28;20033;-70
2022/04/19 02:28:26;;;;;;;1.70;1.52;;;;;;;;;;5021653;28;20068;-70
2022/04/19 02:31:03;;;;;;;2.65;1.52;;;;;;;;;;5019475;28;20037;-70
2022/04/19 02:33:29;;;;;;;2.75;1.40;;;;;;;;;;5005407;28;20099;-70
2022/04/19 02:35:56;;;;;;;4.53;2.20;;;;;;;;;;5020635;28;20033;-70
2022/04/19 02:38:24;;;;;;;3.03;2.00;;;;;;;;;;5022137;28;20540;-70
2022/04/19 02:40:50;;;;;;;5.95;2.22;;;;;;;;;;5019848;28;20128;-70
2022/04/19 02:43:16;;;;;;;2.50;2.10;;;;;;;;;;5021411;28;20033;-70
2022/04/19 02:45:44;;;;;;;1.92;1.70;;;;;;;;;;5020460;28;20037;-72
2022/04/19 02:48:12;;;;;;;2.08;1.98;;;;;;;;;;5021438;28;20043;-71
2022/04/19 02:50:45;;;;;;;3.35;1.85;;;;;;;;;;5020074;28;20033;-71
2022/04/19 02:53:11;;;;;;;2.65;2.00;;;;;;;;;;5021080;28;20099;-71
2022/04/19 02:55:38;;;;;;;2.28;2.03;;;;;;;;;;5020468;28;20048;-72
2022/04/19 02:58:04;;;;;;;5.90;2.15;;;;;;;;;;5021009;28;20124;-73
2022/04/19 03:00:30;;;;;;;2.25;2.05;;;;;;;;;;5020677;28;20033;-73
2022/04/19 03:02:55;;;;;;;5.07;2.65;;;;;;;;;;5018504;28;20045;-72
2022/04/19 03:05:21;;;;;;;3.28;2.55;;;;;;;;;;5020503;28;20055;-72
2022/04/19 03:07:48;;;;;;;2.38;2.17;;;;;;;;;;5022822;28;20124;-71
2022/04/19 03:10:16;;;;;;;3.45;2.70;;;;;;;;;;5020862;28;20099;-71
2022/04/19 03:12:45;;;;;;;4.57;2.70;;;;;;;;;;5005110;28;20446;-71
2022/04/19 03:15:17;;;;;;;5.82;2.75;;;;;;;;;;5018476;28;20111;-71
2022/04/19 03:17:43;;;;;;;4.43;2.90;;;;;;;;;;5022366;28;20128;-74
2022/04/19 03:20:11;;;;;;;4.57;2.53;;;;;;;;;;5002324;28;20068;-71
2022/04/19 03:28:09;;;;;;;2.72;2.50;;;;;;;;;;5018532;28;20038;-71
2022/04/19 03:30:35;;;;;;;5.20;2.63;;;;;;;;;;5020111;28;20120;-72
2022/04/19 03:33:01;;;;;;;4.22;2.40;;;;;;;;;;5020379;28;20119;-72
2022/04/19 03:35:28;;;;;;;7.80;2.30;;;;;;;;;;5018746;28;20068;-72
2022/04/19 03:37:53;;;;;;;4.05;2.60;;;;;;;;;;5021915;28;20429;-72
2022/04/19 03:40:19;;;;;;;4.40;2.00;;;;;;;;;;5020084;28;20768;-72
2022/04/19 03:42:45;;;;;;;3.75;2.30;;;;;;;;;;5019677;28;20040;-71
2022/04/19 03:45:16;;;;;;;2.85;2.60;;;;;;;;;;5018925;28;20423;-71
2022/04/19 03:47:42;;;;;;;3.35;2.28;;;;;;;;;;5018890;28;20033;-71
2022/04/19 03:50:08;;;;;;;2.63;2.20;;;;;;;;;;5019860;28;20045;-71
2022/04/19 03:52:36;;;;;;;3.05;2.20;;;;;;;;;;5020598;28;20045;-71
2022/04/19 03:55:05;;;;;;;2.72;2.40;;;;;;;;;;5014518;28;20029;-72
2022/04/19 03:57:31;;;;;;;2.88;2.63;;;;;;;;;;5017918;28;20060;-71
2022/04/19 03:59:57;;;;;;;6.10;2.28;;;;;;;;;;5019602;28;20490;-71
2022/04/19 04:02:26;;;;;;;3.72;2.50;;;;;;;;;;5018498;28;20033;-72
2022/04/19 04:04:52;;;;;;;3.42;2.60;;;;;;;;;;5018562;28;20036;-70
2022/04/19 04:07:19;;;;;;;3.05;2.50;;;;;;;;;;5020025;28;20107;-73
2022/04/19 04:09:44;;;;;;;3.55;2.38;;;;;;;;;;5019642;28;20632;-71
2022/04/19 04:12:14;;;;;;;3.00;2.30;;;;;;;;;;5020156;28;20478;-72
2022/04/19 04:14:41;;;;;;;2.28;2.08;;;;;;;;;;5016396;28;20040;-71
2022/04/19 04:17:09;;;;;;;3.08;2.47;;;;;;;;;;5018558;28;20034;-71
2022/04/19 04:19:34;;;;;;;2.30;2.10;;;;;;;;;;5015909;28;20431;-71
2022/04/19 04:22:00;;;;;;;3.80;2.40;;;;;;;;;;5017924;28;21110;-70
2022/04/19 04:24:26;;;;;;;5.90;2.15;;;;;;;;;;5001893;28;20041;-72
2022/04/19 04:26:53;;;;;;;6.47;2.40;;;;;;;;;;5019241;28;20067;-72
2022/04/19 04:29:21;;;;;;;3.08;2.17;;;;;;;;;;5017037;28;20566;-72
2022/04/19 04:31:48;;;;;;;2.13;1.98;;;;;;;;;;5017457;28;20072;-72
2022/04/19 04:34:16;;;;;;;4.45;2.60;;;;;;;;;;5035231;28;20036;-72
2022/04/19 04:36:43;;;;;;;2.70;2.50;;;;;;;;;;5018312;28;20036;-72
2022/04/19 04:39:14;;;;;;;2.45;2.25;;;;;;;;;;5017196;28;20490;-71
2022/04/19 04:42:00;;;;;;;4.70;2.42;;;;;;;;;;4994414;28;20042;-72
2022/04/19 04:44:27;;;;;;;5.20;2.63;;;;;;;;;;5002524;28;20041;-71
2022/04/19 04:49:36;;;;;;;5.40;2.22;;;;;;;;;;5019766;28;20034;-71
2022/04/19 04:52:07;;;;;;;5.85;2.53;;;;;;;;;;5019418;28;20038;-71
2022/04/19 04:54:34;;;;;;;4.30;2.40;;;;;;;;;;5015990;28;20128;-70
2022/04/19 04:57:01;;;;;;;4.70;2.17;;;;;;;;;;5017693;28;20284;-71
2022/04/19 04:59:29;;;;;;;2.72;2.00;;;;;;;;;;5013853;28;20039;-71
2022/04/19 05:01:55;;;;;;;2.65;2.25;;;;;;;;;;5004603;28;20040;-71
2022/04/19 05:04:21;;;;;;;3.88;2.15;;;;;;;;;;5013279;28;20029;-71
2022/04/19 05:06:47;;;;;;;2.40;2.20;;;;;;;;;;5012838;28;20044;-71
2022/04/19 05:09:15;;;;;;;3.35;2.38;;;;;;;;;;5021635;28;20052;-71
2022/04/19 05:11:41;;;;;;;3.40;2.40;;;;;;;;;;5022534;28;20363;-71
2022/04/19 05:14:08;;;;;;;2.78;2.42;;;;;;;;;;5000301;28;20032;-71
2022/04/19 05:16:35;;;;;;;3.75;2.47;;;;;;;;;;5016809;28;20033;-71
2022/04/19 05:19:04;;;;;;;3.83;2.40;;;;;;;;;;5019378;28;20502;-71
2022/04/19 05:21:37;;;;;;;3.90;2.30;;;;;;;;;;5019508;28;20034;-72
2022/04/19 05:24:04;;;;;;;3.22;2.00;;;;;;;;;;5019558;28;20033;-72
2022/04/19 05:26:30;;;;;;;2.70;1.58;;;;;;;;;;5019299;28;20049;-71
2022/04/19 05:28:58;;;;;;;2.22;1.60;;;;;;;;;;5020110;28;20029;-72
2022/04/19 05:31:24;;;;;;;3.50;1.40;;;;;;;;;;5021076;28;20072;-71
2022/04/19 05:33:50;;;;;;;1.63;1.45;;;;;;;;;;5008374;28;20410;-71
2022/04/19 05:36:16;;;;;;;1.90;1.40;;;;;;;;;;5019739;28;20896;-71
2022/04/19 05:38:42;;;;;;;3.40;1.40;;;;;;;;;;5022501;28;20045;-71
2022/04/19 05:41:08;;;;;;;1.42;1.25;;;;;;;;;;5022245;28;20067;-71
2022/04/19 05:43:33;;;;;;;2.00;1.52;;;;;;;;;;5006488;28;20394;-71
2022/04/19 05:45:59;;;;;;;2.30;1.40;;;;;;;;;;5023379;28;20111;-71
2022/04/19 05:48:25;;;;;;;11.93;1.55;;;;;;;;;;5021425;28;20038;-71
2022/04/19 05:50:51;;;;;;;3.72;1.42;;;;;;;;;;5022635;28;20037;-71
2022/04/19 05:53:17;;;;;;;2.63;1.60;;;;;;;;;;5022756;28;20034;-73
2022/04/19 05:55:43;;;;;;;2.83;1.65;;;;;;;;;;5022259;28;20060;-73
2022/04/19 05:58:08;;;;;;;6.88;1.70;;;;;;;;;;5021325;28;20040;-74
2022/04/19 06:00:34;;;;;;;4.53;1.77;;;;;;;;;;5020691;28;20029;-74
2022/04/19 06:05:45;;;;;;;2.05;1.55;;;;;;;;;;5023416;28;20084;-73
2022/04/19 06:08:11;;;;;;;3.55;1.30;;;;;;;;;;5020081;28;20080;-74
2022/04/19 06:10:37;;;;;;;1.58;1.48;;;;;;;;;;5019271;28;20454;-74
2022/04/19 06:13:05;;;;;;;2.10;1.60;;;;;;;;;;5020229;28;20674;-74
2022/04/19 06:15:31;;;;;;;2.97;1.23;;;;;;;;;;5004129;28;20037;-74
2022/04/19 06:17:58;;;;;;;2.33;1.73;;;;;;;;;;5021774;28;20034;-74
2022/04/19 06:20:44;;;;;;;1.90;1.60;;;;;;;;;;5021448;28;20049;-73
2022/04/19 06:23:11;;;;;;;1.40;1.30;;;;;;;;;;5021366;28;20059;-73
2022/04/19 06:25:37;;;;;;;1.45;1.30;;;;;;;;;;5005428;28;20387;-74
2022/04/19 06:28:03;;;;;;;2.47;1.50;;;;;;;;;;5021715;28;20087;-74
2022/04/19 06:30:39;;;;;;;2.55;1.60;;;;;;;;;;5021763;28;20060;-73
2022/04/19 06:33:04;;;;;;;2.28;1.55;;;;;;;;;;5020371;28;20067;-74
2022/04/19 06:35:30;;;;;;;2.72;1.83;;;;;;;;;;5022818;28;20099;-73
2022/04/19 06:37:55;;;;;;;2.13;1.90;;;;;;;;;;5024746;28;20037;-73
2022/04/19 06:40:21;;;;;;;2.67;2.03;;;;;;;;;;5022655;28;20044;-74
2022/04/19 06:42:48;;;;;;;3.50;1.90;;;;;;;;;;5021930;28;20037;-74
2022/04/19 06:45:14;;;;;;;3.28;2.00;;;;;;;;;;5022581;28;20044;-73
2022/04/19 06:47:44;;;;;;;1.60;1.30;;;;;;;;;;5021386;28;20037;-74
2022/04/19 06:50:10;;;;;;;4.10;1.70;;;;;;;;;;5021755;28;20036;-73
2022/04/19 06:52:37;;;;;;;1.58;1.48;;;;;;;;;;5021444;28;20037;-72
2022/04/19 06:55:13;;;;;;;2.25;1.60;;;;;;;;;;5019392;28;20029;-72
2022/04/19 06:57:41;;;;;;;2.78;1.65;;;;;;;;;;5021273;28;20052;-72
2022/04/19 07:00:07;;;;;;;2.92;1.70;;;;;;;;;;5021409;28;20033;-72
2022/04/19 07:02:33;;;;;;;2.35;1.40;;;;;;;;;;5020564;28;20771;-73
2022/04/19 07:05:27;;;;;;;1.95;1.48;;;;;;;;;;5020067;28;20041;-72
2022/04/19 07:07:53;;;;;;;2.47;1.70;;;;;;;;;;5020911;28;20038;-70
2022/04/19 07:10:18;;;;;;;3.45;1.58;;;;;;;;;;5021088;28;20025;-70
2022/04/19 07:12:44;;;;;;;3.03;2.20;;;;;;;;;;5021870;28;20393;-71
2022/04/19 07:15:15;;;;;;;2.38;1.83;;;;;;;;;;5021616;28;20048;-71
2022/04/19 07:17:47;;;;;;;4.47;1.90;;;;;;;;;;5017341;28;20037;-71
2022/04/19 07:28:35;;;;;;;2.63;2.13;;;;;;;;;;5024057;28;20037;-70
2022/04/19 07:31:04;;;;;;;2.17;1.95;;;;;;;;;;5031491;28;20120;-70
2022/04/19 07:33:37;;;;;;;2.75;2.40;;;;;;;;;;5024595;28;20025;-71
2022/04/19 07:36:07;;;;;;;2.17;1.98;;;;;;;;;;5020213;28;20037;-74
2022/04/19 07:38:32;;;;;;;3.80;2.40;;;;;;;;;;5020666;28;20116;-71
2022/04/19 07:41:04;;;;;;;3.58;2.42;;;;;;;;;;5021860;28;20036;-70
2022/04/19 07:43:30;;;;;;;3.38;2.47;;;;;;;;;;5020946;28;20030;-70
2022/04/19 07:45:56;;;;;;;2.15;1.67;;;;;;;;;;5021902;28;20045;-70
2022/04/19 07:48:22;;;;;;;3.65;1.98;;;;;;;;;;5021306;28;20536;-70
2022/04/19 07:50:47;;;;;;;3.33;2.72;;;;;;;;;;5005730;28;20039;-70
2022/04/19 07:53:13;;;;;;;3.55;1.60;;;;;;;;;;5018026;28;20033;-72
2022/04/19 07:55:39;;;;;;;5.63;2.60;;;;;;;;;;5020251;28;20045;-72
2022/04/19 07:58:05;;;;;;;4.93;2.40;;;;;;;;;;5020378;28;20080;-71
2022/04/19 08:00:33;;;;;;;4.10;2.85;;;;;;;;;;5020384;28;20036;-71
2022/04/19 08:02:58;;;;;;;2.50;2.30;;;;;;;;;;5021342;28;20044;-71
2022/04/19 08:05:25;;;;;;;3.45;2.20;;;;;;;;;;5021241;28;20042;-71
2022/04/19 08:07:51;;;;;;;3.00;2.35;;;;;;;;;;5024535;28;20045;-71
2022/04/19 08:10:19;;;;;;;2.65;2.20;;;;;;;;;;5025379;28;20025;-71
2022/04/19 08:12:45;;;;;;;6.55;2.70;;;;;;;;;;5025502;28;20044;-72
2022/04/19 08:15:11;;;;;;;2.72;2.15;;;;;;;;;;5023559;28;20041;-72
2022/04/19 08:17:37;;;;;;;5.10;2.30;;;;;;;;;;5033266;28;20398;-71
2022/04/19 08:20:04;;;;;;;3.83;2.22;;;;;;;;;;5024978;28;20512;-72
2022/04/19 08:22:30;;;;;;;6.78;2.60;;;;;;;;;;5024462;28;20065;-71
2022/04/19 08:25:03;;;;;;;3.88;2.50;;;;;;;;;;5026830;28;20049;-71
2022/04/19 08:27:29;;;;;;;4.72;3.35;;;;;;;;;;5023229;28;20041;-71
2022/04/19 08:29:55;;;;;;;3.85;2.95;;;;;;;;;;5020362;28;20037;-72
2022/04/19 08:32:20;;;;;;;7.30;2.85;;;;;;;;;;5023788;28;20033;-71
2022/04/19 08:34:46;;;;;;;4.22;2.20;;;;;;;;;;5022928;28;20494;-71
2022/04/19 08:37:12;;;;;;;3.33;2.58;;;;;;;;;;5024159;28;20045;-71
2022/04/19 08:39:38;;;;;;;4.10;3.17;;;;;;;;;;5024027;28;20033;-71
2022/04/19 08:42:05;;;;;;;3.00;2.60;;;;;;;;;;5023520;28;20574;-71
2022/04/19 08:44:33;;;;;;;5.22;2.60;;;;;;;;;;5017436;28;20064;-71
2022/04/19 08:46:59;;;;;;;4.75;2.72;;;;;;;;;;5024716;28;20514;-72
2022/04/19 08:49:25;;;;;;;5.00;2.47;;;;;;;;;;5024918;28;20793;-72
2022/04/19 08:51:51;;;;;;;3.15;2.85;;;;;;;;;;5022570;28;20581;-72
2022/04/19 08:59:44;;;;;;;3.72;2.72;;;;;;;;;;5023799;28;20068;-72
2022/04/19 09:02:25;;;;;;;6.15;2.85;;;;;;;;;;5023293;28;20061;-72
2022/04/19 09:04:52;;;;;;;4.47;3.08;;;;;;;;;;5022357;28;20745;-72
2022/04/19 09:07:17;;;;;;;5.80;3.33;;;;;;;;;;5023431;28;20037;-72
2022/04/19 09:09:57;;;;;;;8.27;2.97;;;;;;;;;;5022732;28;20627;-72
2022/04/19 09:12:23;;;;;;;7.25;3.13;;;;;;;;;;5020857;28;20123;-72
2022/04/19 09:14:56;;;;;;;4.53;3.10;;;;;;;;;;5020365;28;20545;-72
2022/04/19 09:17:31;;;;;;;11.45;3.58;;;;;;;;;;5020526;28;20044;-72
2022/04/19 09:20:31;;;;;;;5.55;3.30;;;;;;;;;;5021577;28;20095;-70
2022/04/19 09:23:01;;;;;;;5.10;3.55;;;;;;;;;;4993287;28;20041;-72
2022/04/19 09:25:27;;;;;;;6.57;3.45;;;;;;;;;;5021903;28;20076;-70
2022/04/19 09:27:57;;;;;;;3.90;3.22;;;;;;;;;;5022641;28;20073;-70
2022/04/19 09:30:32;;;;;;;5.50;3.75;;;;;;;;;;5022209;28;20064;-70
2022/04/19 09:33:07;;;;;;;7.15;3.83;;;;;;;;;;5021041;28;20041;-71
2022/04/19 09:35:38;;;;;;;4.88;3.28;;;;;;;;;;5022292;28;20037;-69
2022/04/19 09:38:05;;;;;;;6.43;3.40;;;;;;;;;;5022435;28;20536;-70
2022/04/19 09:40:36;;;;;;;8.32;3.65;;;;;;;;;;5024647;28;20294;-71
2022/04/19 09:43:11;;;;;;;7.72;3.50;;;;;;;;;;5021990;28;20033;-71
2022/04/19 09:45:50;;;;;;;6.75;3.33;;;;;;;;;;5028066;28;20033;-70
2022/04/19 09:48:29;;;;;;;5.85;3.83;;;;;;;;;;5022759;28;20454;-71
2022/04/19 09:51:03;;;;;;;6.80;3.70;;;;;;;;;;5023231;28;20065;-70
2022/04/19 09:53:40;;;;;;;5.45;3.85;;;;;;;;;;5023951;28;20033;-71
2022/04/19 09:56:13;;;;;;;4.80;3.38;;;;;;;;;;5023880;28;20033;-71
2022/04/19 09:58:46;;;;;;;5.93;3.45;;;;;;;;;;5025831;28;20087;-70
2022/04/19 10:09:40;;;;;;;9.07;3.50;;;;;;;;;;5026851;28;20041;-70
2022/04/19 10:12:10;;;;;;;5.07;3.13;;;;;;;;;;5024351;28;20033;-70
2022/04/19 10:14:36;;;;;;;10.60;3.90;;;;;;;;;;5025479;28;20033;-70
2022/04/19 10:17:03;;;;;;;5.93;3.78;;;;;;;;;;5022178;28;20041;-71
2022/04/19 10:19:29;;;;;;;10.05;3.67;;;;;;;;;;5025667;28;20033;-71
2022/04/19 10:21:58;;;;;;;6.03;4.05;;;;;;;;;;5024117;28;20026;-70
2022/04/19 10:24:27;;;;;;;4.57;3.35;;;;;;;;;;5025028;28;21022;-70
2022/04/19 10:26:52;;;;;;;5.63;3.72;;;;;;;;;;5022894;28;20048;-71
2022/04/19 10:29:29;;;;;;;6.25;3.85;;;;;;;;;;5022989;28;20125;-71
2022/04/19 10:32:01;;;;;;;5.50;3.80;;;;;;;;;;5022936;28;20041;-71
2022/04/19 10:34:34;;;;;;;4.55;3.70;;;;;;;;;;5024870;28;20529;-71
2022/04/19 10:37:12;;;;;;;7.75;3.90;;;;;;;;;;5024946;28;20033;-71
2022/04/19 10:39:54;;;;;;;7.53;3.83;;;;;;;;;;5022599;28;20034;-70
2022/04/19 10:42:26;;;;;;;6.47;3.92;;;;;;;;;;5025302;28;20112;-71
2022/04/19 10:44:52;;;;;;;6.00;3.83;;;;;;;;;;5025740;28;20099;-71
2022/04/19 10:47:19;;;;;;;8.63;4.53;;;;;;;;;;5024832;28;20116;-70
2022/04/19 10:50:00;;;;;;;5.47;4.03;;;;;;;;;;5023982;28;20041;-70
2022/04/19 10:52:42;;;;;;;5.20;4.15;;;;;;;;;;5025184;28;20087;-71
2022/04/19 10:55:08;;;;;;;5.38;3.72;;;;;;;;;;5023648;28;20040;-70
2022/04/19 10:58:06;;;;;;;5.43;3.67;;;;;;;;;;5025449;28;20045;-70
2022/04/19 11:00:34;;;;;;;8.30;3.60;;;;;;;;;;5028433;28;20546;-70
2022/04/19 11:03:00;;;;;;;5.88;3.83;;;;;;;;;;5022724;28;20041;-70
2022/04/19 11:05:45;;;;;;;5.65;3.95;;;;;;;;;;5024070;28;20033;-70
2022/04/19 11:08:26;;;;;;;4.80;3.78;;;;;;;;;;5023552;28;20033;-68
2022/04/19 11:10:51;;;;;;;4.38;3.83;;;;;;;;;;5024004;28;20033;-68
2022/04/19 11:13:27;;;;;;;5.15;3.70;;;;;;;;;;5022791;28;20398;-69
2022/04/19 11:16:05;;;;;;;5.55;3.45;;;;;;;;;;5023839;28;20052;-69
2022/04/19 11:18:36;;;;;;;12.15;3.63;;;;;;;;;;5025334;28;20116;-68
2022/04/19 11:21:12;;;;;;;5.97;3.53;;;;;;;;;;5024224;28;20103;-68
2022/04/19 11:23:41;;;;;;;4.47;3.10;;;;;;;;;;5023565;28;20347;-70
2022/04/19 11:26:09;;;;;;;5.75;3.38;;;;;;;;;;5024111;28;20064;-68
2022/04/19 11:28:35;;;;;;;8.05;3.85;;;;;;;;;;5026349;28;20475;-68
2022/04/19 11:31:00;;;;;;;4.22;3.67;;;;;;;;;;5024573;28;20048;-69
2022/04/19 11:33:33;;;;;;;4.90;3.85;;;;;;;;;;5023147;28;20508;-69
2022/04/19 11:36:02;;;;;;;7.22;3.70;;;;;;;;;;5021672;28;20061;-68
2022/04/19 11:38:29;;;;;;;9.23;3.67;;;;;;;;;;5020964;28;20033;-68
2022/04/19 11:46:45;;;;;;;3.58;2.83;;;;;;;;;;5024906;28;20793;-68
2022/04/19 11:49:19;;;;;;;5.03;3.35;;;;;;;;;;5020124;28;20049;-68
2022/04/19 11:51:57;;;;;;;3.30;2.80;;;;;;;;;;5019826;28;20044;-68
2022/04/19 11:54:27;;;;;;;5.22;3.10;;;;;;;;;;5021768;28;20498;-68
2022/04/19 11:56:58;;;;;;;8.30;3.83;;;;;;;;;;5019326;28;20056;-68
2022/04/19 11:59:30;;;;;;;7.18;3.45;;;;;;;;;;5022067;28;20041;-68
2022/04/19 12:01:57;;;;;;;5.18;3.80;;;;;;;;;;5021003;28;20041;-68
2022/04/19 12:04:23;;;;;;;4.57;3.45;;;;;;;;;;5021884;28;20034;-68
2022/04/19 12:06:52;;;;;;;3.92;3.13;;;;;;;;;;5019331;28;20119;-68
2022/04/19 12:09:19;;;;;;;3.63;3.30;;;;;;;;;;5021781;28;20073;-68
2022/04/19 12:11:46;;;;;;;3.83;2.75;;;;;;;;;;5021323;28;20509;-69
2022/04/19 12:14:29;;;;;;;6.38;3.13;;;;;;;;;;5021508;28;20547;-68
2022/04/19 12:16:57;;;;;;;6.18;2.90;;;;;;;;;;5019408;28;20041;-68
2022/04/19 12:19:40;;;;;;;3.38;3.03;;;;;;;;;;5020211;28;20041;-68
2022/04/19 12:22:19;;;;;;;4.78;3.25;;;;;;;;;;5020855;28;20044;-68
2022/04/19 12:24:51;;;;;;;5.40;3.40;;;;;;;;;;5021162;28;21010;-68
2022/04/19 12:27:23;;;;;;;3.78;3.05;;;;;;;;;;5020909;28;20049;-68
2022/04/19 12:30:01;;;;;;;3.83;2.80;;;;;;;;;;5020767;28;20037;-69
2022/04/19 12:32:48;;;;;;;4.32;3.13;;;;;;;;;;5023818;28;20453;-68
2022/04/19 12:35:14;;;;;;;4.05;3.00;;;;;;;;;;5017501;28;20072;-68
2022/04/19 12:37:40;;;;;;;3.38;3.00;;;;;;;;;;5016623;28;20065;-68
2022/04/19 12:40:06;;;;;;;3.55;2.90;;;;;;;;;;5018631;28;20064;-70
2022/04/19 12:42:53;;;;;;;8.35;2.85;;;;;;;;;;5019999;28;20022;-69
2022/04/19 12:45:18;;;;;;;5.65;3.00;;;;;;;;;;5019936;28;20049;-69
2022/04/19 12:47:48;;;;;;;2.80;2.60;;;;;;;;;;5021373;28;20107;-69
2022/04/19 12:50:19;;;;;;;3.30;2.53;;;;;;;;;;5011657;28;20067;-69
2022/04/19 12:52:46;;;;;;;2.47;2.28;;;;;;;;;;5017914;28;20121;-69
2022/04/19 12:55:12;;;;;;;3.20;2.40;;;;;;;;;;5015885;28;20021;-69
2022/04/19 12:57:40;;;;;;;3.58;2.35;;;;;;;;;;5016690;28;20033;-69
2022/04/19 13:00:09;;;;;;;2.80;2.60;;;;;;;;;;5015741;28;20406;-69
2022/04/19 13:02:40;;;;;;;4.30;2.90;;;;;;;;;;5014363;28;20104;-68
2022/04/19 13:05:06;;;;;;;4.70;2.42;;;;;;;;;;5015079;28;20033;-70
2022/04/19 13:13:05;;;;;;;2.60;1.95;;;;;;;;;;5017795;28;20044;-70
2022/04/19 13:15:36;;;;;;;3.50;2.20;;;;;;;;;;5022000;28;20025;-70
2022/04/19 13:18:02;;;;;;;2.67;2.25;;;;;;;;;;5020726;28;20041;-70
2022/04/19 13:20:28;;;;;;;10.85;2.92;;;;;;;;;;5022841;28;20028;-69
2022/04/19 13:22:54;;;;;;;5.70;2.35;;;;;;;;;;5020952;28;20045;-70
2022/04/19 13:25:20;;;;;;;6.65;2.22;;;;;;;;;;5020626;28;20045;-69
2022/04/19 13:27:47;;;;;;;7.15;3.13;;;;;;;;;;5021977;28;20124;-69
2022/04/19 13:30:18;;;;;;;4.35;2.40;;;;;;;;;;5025630;28;20050;-70
2022/04/19 13:32:43;;;;;;;3.75;2.60;;;;;;;;;;5025784;28;20053;-69
2022/04/19 13:35:10;;;;;;;5.97;2.15;;;;;;;;;;5026240;28;20079;-69
2022/04/19 13:40:20;;;;;;;2.88;2.33;;;;;;;;;;5026676;28;20536;-69
2022/04/19 13:42:46;;;;;;;3.50;2.17;;;;;;;;;;5024382;28;20131;-69
2022/04/19 13:45:12;;;;;;;4.13;2.38;;;;;;;;;;5025585;28;20470;-70
2022/04/19 13:47:38;;;;;;;2.42;2.17;;;;;;;;;;5026849;28;20572;-70
2022/04/19 13:50:04;;;;;;;6.25;2.33;;;;;;;;;;5027095;28;20049;-69
2022/04/19 13:52:33;;;;;;;4.28;2.38;;;;;;;;;;5026015;28;20136;-70
2022/04/19 13:54:59;;;;;;;2.95;2.42;;;;;;;;;;5024444;28;20037;-68
2022/04/19 13:57:25;;;;;;;4.90;2.20;;;;;;;;;;5022898;28;20037;-68
2022/04/19 13:59:50;;;;;;;2.60;2.40;;;;;;;;;;5026314;28;20059;-68
2022/04/19 14:02:16;;;;;;;2.00;1.80;;;;;;;;;;5014258;28;20037;-68
2022/04/19 14:04:43;;;;;;;2.80;2.28;;;;;;;;;;5017558;28;20044;-68
2022/04/19 14:07:09;;;;;;;2.10;2.00;;;;;;;;;;5026796;28;20418;-69
2022/04/19 14:09:38;;;;;;;2.05;1.90;;;;;;;;;;5022839;28;20034;-68
2022/04/19 14:12:04;;;;;;;3.83;1.95;;;;;;;;;;5021015;28;20727;-68
2022/04/19 14:14:33;;;;;;;2.28;1.70;;;;;;;;;;5022898;28;20029;-68
2022/04/19 14:17:01;;;;;;;1.85;1.70;;;;;;;;;;5021718;28;20565;-68
2022/04/19 14:19:27;;;;;;;2.47;1.40;;;;;;;;;;5018786;28;20029;-68
2022/04/19 14:21:53;;;;;;;4.18;1.70;;;;;;;;;;5020392;28;20040;-68
2022/04/19 14:24:21;;;;;;;2.30;1.60;;;;;;;;;;5022872;28;20834;-68
2022/04/19 14:26:47;;;;;;;1.60;1.50;;;;;;;;;;5021416;28;20060;-69
2022/04/19 14:34:40;;;;;;;1.98;1.73;;;;;;;;;;5031792;28;20470;-69
2022/04/19 14:37:06;;;;;;;1.55;1.10;;;;;;;;;;5021889;28;20601;-69
2022/04/19 14:39:32;;;;;;;4.28;1.45;;;;;;;;;;5024222;28;20037;-70
2022/04/19 14:41:59;;;;;;;2.97;1.45;;;;;;;;;;5019731;28;20498;-70
2022/04/19 14:44:25;;;;;;;1.55;1.42;;;;;;;;;;5020971;28;20038;-67
2022/04/19 14:46:53;;;;;;;8.60;1.40;;;;;;;;;;5018024;28;20076;-67
2022/04/19 14:49:18;;;;;;;2.40;1.38;;;;;;;;;;5024316;28;20422;-68
2022/04/19 14:54:28;;;;;;;1.85;1.13;;;;;;;;;;5024458;28;20029;-70
2022/04/19 14:56:53;;;;;;;7.50;1.52;;;;;;;;;;5021112;28;20116;-69
2022/04/19 14:59:19;;;;;;;2.40;1.20;;;;;;;;;;5023490;28;20100;-70
2022/04/19 15:01:44;;;;;;;3.03;1.23;;;;;;;;;;5023292;28;20041;-69
2022/04/19 15:04:09;;;;;;;2.03;1.67;;;;;;;;;;5021080;28;20045;-70
2022/04/19 15:06:35;;;;;;;3.67;1.50;;;;;;;;;;5022938;28;20034;-70
2022/04/19 15:09:00;;;;;;;12.75;1.70;;;;;;;;;;5024834;28;20187;-70
2022/04/19 15:11:25;;;;;;;3.17;1.60;;;;;;;;;;5023497;28;20037;-70
2022/04/19 15:13:51;;;;;;;3.40;1.90;;;;;;;;;;5006637;28;20124;-70
2022/04/19 15:16:21;;;;;;;2.42;1.48;;;;;;;;;;5022320;28;20036;-70
2022/04/19 15:18:46;;;;;;;2.92;1.20;;;;;;;;;;5009235;28;20052;-70
2022/04/19 15:21:12;;;;;;;4.18;1.50;;;;;;;;;;5021974;28;20045;-70
2022/04/19 15:23:37;;;;;;;3.03;1.55;;;;;;;;;;5025214;28;20124;-67
2022/04/19 15:26:03;;;;;;;2.08;1.70;;;;;;;;;;5021512;28;20079;-70
2022/04/19 15:28:31;;;;;;;3.42;1.65;;;;;;;;;;5026206;28;20037;-70
2022/04/19 15:30:58;;;;;;;1.58;1.20;;;;;;;;;;5021850;28;20107;-70
2022/04/19 15:33:23;;;;;;;2.75;1.63;;;;;;;;;;5025376;28;20232;-70
2022/04/19 15:35:49;;;;;;;1.98;1.35;;;;;;;;;;5023642;28;20593;-70
2022/04/19 15:38:14;;;;;;;3.17;1.50;;;;;;;;;;5024749;28;20033;-70
2022/04/19 15:40:40;;;;;;;5.30;1.58;;;;;;;;;;5024685;28;20037;-69
2022/04/19 15:43:06;;;;;;;5.28;1.90;;;;;;;;;;5022890;28;20076;-69
2022/04/19 15:45:34;;;;;;;4.05;2.10;;;;;;;;;;5017180;28;20033;-69
2022/04/19 15:47:59;;;;;;;4.72;1.67;;;;;;;;;;5019405;28;20033;-71